createdAt,value
2018-02-19T00:00:36.058Z,16.73
2018-02-19T00:03:01.843Z,16.65
2018-02-19T00:05:27.774Z,16.73
2018-02-19T00:07:53.747Z,16.76
2018-02-19T00:10:19.534Z,16.76
2018-02-19T00:12:45.325Z,16.87
2018-02-19T00:15:11.136Z,16.85
2018-02-19T00:17:36.919Z,16.81
2018-02-19T00:20:02.765Z,16.81
2018-02-19T00:22:28.551Z,16.70
2018-02-19T00:24:54.326Z,16.65
2018-02-19T00:27:20.198Z,16.66
2018-02-19T00:29:45.983Z,16.70
2018-02-19T00:32:11.770Z,16.83
2018-02-19T00:34:37.558Z,16.77
2018-02-19T00:37:03.478Z,16.69
2018-02-19T00:39:29.270Z,16.64
2018-02-19T00:41:55.075Z,16.53
2018-02-19T00:44:20.858Z,16.61
2018-02-19T00:46:46.640Z,16.63
2018-02-19T00:49:12.422Z,16.62
2018-02-19T00:51:38.331Z,16.61
2018-02-19T00:54:04.118Z,16.44
2018-02-19T00:56:29.901Z,16.34
2018-02-19T00:58:55.683Z,16.35
2018-02-19T01:01:21.499Z,16.33
2018-02-19T01:03:47.331Z,16.34
2018-02-19T01:06:13.119Z,16.32
2018-02-19T01:08:38.958Z,16.28
2018-02-19T01:11:05.671Z,16.15
2018-02-19T01:13:31.463Z,16.18
2018-02-19T01:15:57.249Z,16.23
2018-02-19T01:18:23.073Z,16.27
2018-02-19T01:20:48.859Z,16.26
2018-02-19T01:23:14.687Z,16.21
2018-02-19T01:25:40.525Z,16.04
2018-02-19T01:28:06.333Z,16.20
2018-02-19T01:30:32.114Z,16.12
2018-02-19T01:32:57.899Z,16.09
2018-02-19T01:35:23.691Z,16.26
2018-02-19T01:37:49.486Z,16.29
2018-02-19T01:40:15.265Z,16.39
2018-02-19T01:42:41.082Z,16.31
2018-02-19T01:45:06.863Z,16.24
2018-02-19T01:47:32.661Z,16.20
2018-02-19T01:50:04.710Z,16.22
2018-02-19T01:52:30.502Z,16.23
2018-02-19T01:54:56.283Z,16.35
2018-02-19T01:57:22.070Z,16.34
2018-02-19T01:59:47.862Z,16.36
2018-02-19T02:02:13.723Z,16.18
2018-02-19T02:04:39.530Z,16.14
2018-02-19T02:07:05.318Z,16.29
2018-02-19T02:09:31.104Z,16.26
2018-02-19T02:11:56.894Z,16.34
2018-02-19T02:14:22.683Z,16.33
2018-02-19T02:16:48.476Z,16.28
2018-02-19T02:19:14.289Z,16.21
2018-02-19T02:21:40.077Z,16.11
2018-02-19T02:24:05.857Z,16.15
2018-02-19T02:26:31.651Z,16.17
2018-02-19T02:28:57.477Z,16.19
2018-02-19T02:31:23.302Z,16.20
2018-02-19T02:33:49.089Z,16.21
2018-02-19T02:36:15.883Z,16.19
2018-02-19T02:38:41.677Z,16.11
2018-02-19T02:41:07.510Z,16.16
2018-02-19T02:43:33.474Z,16.14
2018-02-19T02:45:59.316Z,16.21
2018-02-19T02:48:25.137Z,16.30
2018-02-19T02:50:50.939Z,16.31
2018-02-19T02:53:16.761Z,16.41
2018-02-19T02:55:42.576Z,16.13
2018-02-19T02:58:08.366Z,16.21
2018-02-19T03:00:34.195Z,16.28
2018-02-19T03:02:59.982Z,16.27
2018-02-19T03:05:25.794Z,16.29
2018-02-19T03:07:51.622Z,16.34
2018-02-19T03:10:17.414Z,16.13
2018-02-19T03:12:43.239Z,16.14
2018-02-19T03:15:09.032Z,16.19
2018-02-19T03:17:34.866Z,16.14
2018-02-19T03:20:00.649Z,16.15
2018-02-19T03:22:26.429Z,16.12
2018-02-19T03:24:52.222Z,15.97
2018-02-19T03:27:18.049Z,15.88
2018-02-19T03:29:43.874Z,15.96
2018-02-19T03:32:09.665Z,15.99
2018-02-19T03:34:35.500Z,16.05
2018-02-19T03:37:01.286Z,16.07
2018-02-19T03:39:27.069Z,16.06
2018-02-19T03:41:52.862Z,16.10
2018-02-19T03:44:18.678Z,16.08
2018-02-19T03:46:44.466Z,16.07
2018-02-19T03:49:10.257Z,16.09
2018-02-19T03:51:36.042Z,16.19
2018-02-19T03:54:01.837Z,16.12
2018-02-19T03:56:27.633Z,16.20
2018-02-19T03:58:53.449Z,16.18
2018-02-19T04:01:19.247Z,16.07
2018-02-19T04:03:45.075Z,16.12
2018-02-19T04:06:10.918Z,16.05
2018-02-19T04:08:36.718Z,15.98
2018-02-19T04:11:02.687Z,16.15
2018-02-19T04:13:28.521Z,16.09
2018-02-19T04:15:54.297Z,16.06
2018-02-19T04:18:20.098Z,16.07
2018-02-19T04:20:45.877Z,16.01
2018-02-19T04:23:11.672Z,16.07
2018-02-19T04:25:37.499Z,16.13
2018-02-19T04:28:03.286Z,16.14
2018-02-19T04:30:29.110Z,16.19
2018-02-19T04:32:54.948Z,16.10
2018-02-19T04:35:20.738Z,16.11
2018-02-19T04:37:46.554Z,16.06
2018-02-19T04:40:12.354Z,16.01
2018-02-19T04:42:38.210Z,16.09
2018-02-19T04:45:10.076Z,16.05
2018-02-19T04:47:35.870Z,15.95
2018-02-19T04:50:01.666Z,15.97
2018-02-19T04:52:27.458Z,15.96
2018-02-19T04:54:53.289Z,15.87
2018-02-19T04:57:19.077Z,15.83
2018-02-19T04:59:44.894Z,15.81
2018-02-19T05:02:10.714Z,15.82
2018-02-19T05:04:36.558Z,15.89
2018-02-19T05:07:02.342Z,15.95
2018-02-19T05:09:28.134Z,15.84
2018-02-19T05:11:53.926Z,15.96
2018-02-19T05:14:19.717Z,15.95
2018-02-19T05:16:45.505Z,15.96
2018-02-19T05:19:11.294Z,15.92
2018-02-19T05:21:39.244Z,15.87
2018-02-19T05:24:05.041Z,15.85
2018-02-19T05:26:30.866Z,15.88
2018-02-19T05:28:56.649Z,15.94
2018-02-19T05:31:22.439Z,15.94
2018-02-19T05:33:48.435Z,16.08
2018-02-19T05:36:14.246Z,15.97
2018-02-19T05:38:40.035Z,15.93
2018-02-19T05:41:05.823Z,15.87
2018-02-19T05:43:31.698Z,15.94
2018-02-19T05:45:57.667Z,15.95
2018-02-19T05:48:23.507Z,16.03
2018-02-19T05:50:50.457Z,15.98
2018-02-19T05:53:16.258Z,15.98
2018-02-19T05:55:42.074Z,16.03
2018-02-19T05:58:07.904Z,15.98
2018-02-19T06:00:33.734Z,16.05
2018-02-19T06:02:59.572Z,16.09
2018-02-19T06:05:25.406Z,16.06
2018-02-19T06:07:51.242Z,15.93
2018-02-19T06:10:17.031Z,16.16
2018-02-19T06:12:42.896Z,16.11
2018-02-19T06:15:08.796Z,16.09
2018-02-19T06:17:34.614Z,16.09
2018-02-19T06:20:00.457Z,16.01
2018-02-19T06:22:26.275Z,16.05
2018-02-19T06:24:52.121Z,16.06
2018-02-19T06:27:19.058Z,16.14
2018-02-19T06:29:44.899Z,16.16
2018-02-19T06:32:10.734Z,16.13
2018-02-19T06:34:36.572Z,16.08
2018-02-19T06:37:02.412Z,15.98
2018-02-19T06:39:28.257Z,15.98
2018-02-19T06:41:54.202Z,16.00
2018-02-19T06:44:20.027Z,16.00
2018-02-19T06:46:45.846Z,16.00
2018-02-19T06:49:11.638Z,16.05
2018-02-19T06:51:37.477Z,16.03
2018-02-19T06:54:03.314Z,16.13
2018-02-19T06:56:29.149Z,16.11
2018-02-19T06:58:54.978Z,15.97
2018-02-19T07:01:20.782Z,16.05
2018-02-19T07:03:46.606Z,16.07
2018-02-19T07:06:12.449Z,16.12
2018-02-19T07:08:38.277Z,16.13
2018-02-19T07:11:04.123Z,16.17
2018-02-19T07:13:29.922Z,16.07
2018-02-19T07:15:55.746Z,15.93
2018-02-19T07:18:21.575Z,15.90
2018-02-19T07:20:47.410Z,15.96
2018-02-19T07:23:13.251Z,16.09
2018-02-19T07:25:39.084Z,16.15
2018-02-19T07:28:04.925Z,16.35
2018-02-19T07:30:30.767Z,16.25
2018-02-19T07:32:56.579Z,16.19
2018-02-19T07:35:22.415Z,16.20
2018-02-19T07:37:48.212Z,16.17
2018-02-19T07:40:14.040Z,16.02
2018-02-19T07:42:39.867Z,16.13
2018-02-19T07:45:05.697Z,16.02
2018-02-19T07:47:31.493Z,16.07
2018-02-19T07:49:57.347Z,16.01
2018-02-19T07:52:23.142Z,16.06
2018-02-19T07:54:48.982Z,16.13
2018-02-19T07:57:14.773Z,16.24
2018-02-19T07:59:40.575Z,16.29
2018-02-19T08:02:06.404Z,16.23
2018-02-19T08:04:32.195Z,16.14
2018-02-19T08:06:58.978Z,16.23
2018-02-19T08:09:24.811Z,16.16
2018-02-19T08:11:50.616Z,16.20
2018-02-19T08:14:16.450Z,16.22
2018-02-19T08:16:42.278Z,16.13
2018-02-19T08:19:08.122Z,16.11
2018-02-19T08:21:33.914Z,16.24
2018-02-19T08:23:59.760Z,16.25
2018-02-19T08:26:25.574Z,16.37
2018-02-19T08:28:51.423Z,16.26
2018-02-19T08:31:17.289Z,16.27
2018-02-19T08:33:44.227Z,16.23
2018-02-19T08:36:10.018Z,16.23
2018-02-19T08:38:35.846Z,16.33
2018-02-19T08:41:01.650Z,16.30
2018-02-19T08:43:27.452Z,16.34
2018-02-19T08:45:53.262Z,16.33
2018-02-19T08:48:19.067Z,16.19
2018-02-19T08:50:44.855Z,16.27
2018-02-19T08:53:10.680Z,16.41
2018-02-19T08:55:36.505Z,16.56
2018-02-19T08:58:02.307Z,16.49
2018-02-19T09:00:28.110Z,16.45
2018-02-19T09:02:53.918Z,16.47
2018-02-19T09:05:19.720Z,16.55
2018-02-19T09:07:45.520Z,16.52
2018-02-19T09:10:11.367Z,16.44
2018-02-19T09:12:37.246Z,16.44
2018-02-19T09:15:03.075Z,16.33
2018-02-19T09:17:28.923Z,16.47
2018-02-19T09:19:54.709Z,16.40
2018-02-19T09:22:20.515Z,16.56
2018-02-19T09:24:46.320Z,16.55
2018-02-19T09:27:12.111Z,16.46
2018-02-19T09:29:37.987Z,16.32
2018-02-19T09:32:03.780Z,16.40
2018-02-19T09:34:29.757Z,16.48
2018-02-19T09:36:55.587Z,16.40
2018-02-19T09:39:21.498Z,16.35
2018-02-19T09:41:47.298Z,16.40
2018-02-19T09:44:13.151Z,16.47
2018-02-19T09:46:39.895Z,16.57
2018-02-19T09:49:05.772Z,16.56
2018-02-19T09:51:31.608Z,16.64
2018-02-19T09:53:57.445Z,16.64
2018-02-19T09:56:23.234Z,16.64
2018-02-19T09:58:49.063Z,16.78
2018-02-19T10:01:14.863Z,16.77
2018-02-19T10:03:40.699Z,16.82
2018-02-19T10:06:06.522Z,16.80
2018-02-19T10:08:32.330Z,16.80
2018-02-19T10:10:58.128Z,16.81
2018-02-19T10:13:23.963Z,16.79
2018-02-19T10:15:49.754Z,16.73
2018-02-19T10:18:15.562Z,16.74
2018-02-19T10:20:41.403Z,16.76
2018-02-19T10:23:07.342Z,16.77
2018-02-19T10:25:33.175Z,16.80
2018-02-19T10:27:58.988Z,16.64
2018-02-19T10:30:24.832Z,16.66
2018-02-19T10:32:50.623Z,16.76
2018-02-19T10:35:16.481Z,16.68
2018-02-19T10:37:42.275Z,16.66
2018-02-19T10:40:08.077Z,16.68
2018-02-19T10:42:34.006Z,16.66
2018-02-19T10:44:59.833Z,16.69
2018-02-19T10:47:25.620Z,16.69
2018-02-19T10:49:51.460Z,16.70
2018-02-19T10:52:17.264Z,16.74
2018-02-19T10:54:43.097Z,16.71
2018-02-19T10:57:08.906Z,16.66
2018-02-19T10:59:34.731Z,16.65
2018-02-19T11:02:00.532Z,16.72
2018-02-19T11:04:26.403Z,16.79
2018-02-19T11:06:52.209Z,16.81
2018-02-19T11:09:18.047Z,16.86
2018-02-19T11:11:43.846Z,16.82
2018-02-19T11:14:09.675Z,16.75
2018-02-19T11:16:35.476Z,16.77
2018-02-19T11:19:01.278Z,16.82
2018-02-19T11:21:27.083Z,16.74
2018-02-19T11:23:52.917Z,16.71
2018-02-19T11:26:18.741Z,16.57
2018-02-19T11:28:44.551Z,16.55
2018-02-19T11:31:10.393Z,16.50
2018-02-19T11:33:36.179Z,16.51
2018-02-19T11:36:02.020Z,16.68
2018-02-19T11:38:27.807Z,16.86
2018-02-19T11:40:53.608Z,16.85
2018-02-19T11:43:19.418Z,16.83
2018-02-19T11:45:45.287Z,16.81
2018-02-19T11:48:11.099Z,16.79
2018-02-19T11:50:36.894Z,16.75
2018-02-19T11:53:02.691Z,16.74
2018-02-19T11:55:28.495Z,16.79
2018-02-19T11:57:54.294Z,16.71
2018-02-19T12:00:20.115Z,16.83
2018-02-19T12:02:45.911Z,16.80
2018-02-19T12:05:11.702Z,16.94
2018-02-19T12:07:37.506Z,16.95
2018-02-19T12:10:03.306Z,16.96
2018-02-19T12:12:29.112Z,16.90
2018-02-19T12:14:54.906Z,16.87
2018-02-19T12:17:20.759Z,16.91
2018-02-19T12:19:46.602Z,16.94
2018-02-19T12:22:12.444Z,16.95
2018-02-19T12:24:38.222Z,16.89
2018-02-19T12:27:04.028Z,16.84
2018-02-19T12:29:30.892Z,16.81
2018-02-19T12:31:56.682Z,16.92
2018-02-19T12:34:22.545Z,16.88
2018-02-19T12:36:48.399Z,16.78
2018-02-19T12:39:16.250Z,16.80
2018-02-19T12:41:42.106Z,16.76
2018-02-19T12:44:08.196Z,16.72
2018-02-19T12:46:34.039Z,16.78
2018-02-19T12:48:59.854Z,16.80
2018-02-19T12:51:25.703Z,16.86
2018-02-19T12:53:52.327Z,16.92
2018-02-19T12:56:18.163Z,16.88
2018-02-19T12:58:43.975Z,16.86
2018-02-19T13:01:09.826Z,16.91
2018-02-19T13:03:35.702Z,16.92
2018-02-19T13:06:01.527Z,16.92
2018-02-19T13:08:27.361Z,16.89
2018-02-19T13:10:53.201Z,16.94
2018-02-19T13:13:19.053Z,16.97
2018-02-19T13:15:44.871Z,16.92
2018-02-19T13:18:10.711Z,17.03
2018-02-19T13:20:36.523Z,16.95
2018-02-19T13:23:02.323Z,16.85
2018-02-19T13:25:28.466Z,16.82
2018-02-19T13:27:54.273Z,16.72
2018-02-19T13:30:20.067Z,16.78
2018-02-19T13:32:45.869Z,16.84
2018-02-19T13:35:11.663Z,17.01
2018-02-19T13:37:37.591Z,17.05
2018-02-19T13:40:03.381Z,17.02
2018-02-19T13:42:29.202Z,16.89
2018-02-19T13:44:55.033Z,16.91
2018-02-19T13:47:20.893Z,17.02
2018-02-19T13:49:46.718Z,17.05
2018-02-19T13:52:12.511Z,17.03
2018-02-19T13:54:38.345Z,16.95
2018-02-19T13:57:04.146Z,16.89
2018-02-19T13:59:29.990Z,16.83
2018-02-19T14:01:55.854Z,16.80
2018-02-19T14:04:21.665Z,16.86
2018-02-19T14:06:47.574Z,16.97
2018-02-19T14:09:13.420Z,16.89
2018-02-19T14:11:40.143Z,16.77
2018-02-19T14:14:05.938Z,16.66
2018-02-19T14:16:31.788Z,16.62
2018-02-19T14:18:57.594Z,16.66
2018-02-19T14:21:23.523Z,16.64
2018-02-19T14:23:49.323Z,16.79
2018-02-19T14:26:15.134Z,16.67
2018-02-19T14:28:40.941Z,16.69
2018-02-19T14:31:06.746Z,16.79
2018-02-19T14:33:32.555Z,16.86
2018-02-19T14:35:58.432Z,16.88
2018-02-19T14:38:24.239Z,16.87
2018-02-19T14:40:50.038Z,16.80
2018-02-19T14:43:15.843Z,16.84
2018-02-19T14:45:41.683Z,16.78
2018-02-19T14:48:07.486Z,16.82
2018-02-19T14:50:33.288Z,16.84
2018-02-19T14:52:59.092Z,16.93
2018-02-19T14:55:24.907Z,16.82
2018-02-19T14:57:50.857Z,16.77
2018-02-19T15:00:16.664Z,16.80
2018-02-19T15:02:42.468Z,16.79
2018-02-19T15:05:08.279Z,16.85
2018-02-19T15:07:34.125Z,16.94
2018-02-19T15:09:59.944Z,16.92
2018-02-19T15:12:25.744Z,16.82
2018-02-19T15:14:51.556Z,16.83
2018-02-19T15:17:17.360Z,16.82
2018-02-19T15:19:43.160Z,16.78
2018-02-19T15:22:08.958Z,16.79
2018-02-19T15:24:34.779Z,16.76
2018-02-19T15:27:00.576Z,16.88
2018-02-19T15:29:26.414Z,16.81
2018-02-19T15:31:52.215Z,16.80
2018-02-19T15:34:18.220Z,16.86
2018-02-19T15:36:44.016Z,17.02
2018-02-19T15:39:09.895Z,16.97
2018-02-19T15:41:35.706Z,16.99
2018-02-19T15:44:01.498Z,16.90
2018-02-19T15:46:27.430Z,16.96
2018-02-19T15:48:53.231Z,17.00
2018-02-19T15:51:20.222Z,16.96
2018-02-19T15:53:46.022Z,16.95
2018-02-19T15:56:11.827Z,16.95
2018-02-19T15:58:37.670Z,16.93
2018-02-19T16:01:04.621Z,16.95
2018-02-19T16:03:30.463Z,16.88
2018-02-19T16:05:56.315Z,17.05
2018-02-19T16:08:22.115Z,16.95
2018-02-19T16:10:47.922Z,16.92
2018-02-19T16:13:13.764Z,16.82
2018-02-19T16:15:39.591Z,16.90
2018-02-19T16:18:05.382Z,16.86
2018-02-19T16:20:32.206Z,16.91
2018-02-19T16:22:58.021Z,16.83
2018-02-19T16:25:23.830Z,16.78
2018-02-19T16:27:49.646Z,16.78
2018-02-19T16:30:15.450Z,16.81
2018-02-19T16:32:41.262Z,16.88
2018-02-19T16:35:07.069Z,16.93
2018-02-19T16:37:32.919Z,16.92
2018-02-19T16:39:59.635Z,16.94
2018-02-19T16:42:25.434Z,16.82
2018-02-19T16:44:51.237Z,16.86
2018-02-19T16:47:17.034Z,16.92
2018-02-19T16:49:42.860Z,16.88
2018-02-19T16:52:08.647Z,16.95
2018-02-19T16:54:34.452Z,16.93
2018-02-19T16:57:00.275Z,16.76
2018-02-19T16:59:26.066Z,16.65
2018-02-19T17:01:51.904Z,16.82
2018-02-19T17:04:17.692Z,16.85
2018-02-19T17:06:43.517Z,16.96
2018-02-19T17:09:09.301Z,16.89
2018-02-19T17:11:35.095Z,16.80
2018-02-19T17:14:01.078Z,16.89
2018-02-19T17:16:26.910Z,16.83
2018-02-19T17:18:52.689Z,16.83
2018-02-19T17:21:18.554Z,16.81
2018-02-19T17:23:44.348Z,16.87
2018-02-19T17:26:10.146Z,16.81
2018-02-19T17:28:36.058Z,16.81
2018-02-19T17:31:01.919Z,16.80
2018-02-19T17:33:27.757Z,16.68
2018-02-19T17:35:53.575Z,16.66
2018-02-19T17:38:19.432Z,16.69
2018-02-19T17:40:45.410Z,16.71
2018-02-19T17:43:11.221Z,16.73
2018-02-19T17:45:37.019Z,16.74
2018-02-19T17:48:03.803Z,16.70
2018-02-19T17:50:29.656Z,16.64
2018-02-19T17:52:55.657Z,16.68
2018-02-19T17:55:21.651Z,16.71
2018-02-19T17:57:48.629Z,16.65
2018-02-19T18:00:14.580Z,16.66
2018-02-19T18:02:40.559Z,16.69
2018-02-19T18:05:06.595Z,16.83
2018-02-19T18:07:32.451Z,16.79
2018-02-19T18:09:58.244Z,16.70
2018-02-19T18:12:24.187Z,16.76
2018-02-19T18:14:50.006Z,16.73
2018-02-19T18:17:16.082Z,16.72
2018-02-19T18:19:41.979Z,16.70
2018-02-19T18:22:07.773Z,16.73
2018-02-19T18:24:34.710Z,16.75
2018-02-19T18:27:00.527Z,16.81
2018-02-19T18:29:26.503Z,16.72
2018-02-19T18:31:54.223Z,16.70
2018-02-19T18:34:20.063Z,16.72
2018-02-19T18:36:45.865Z,16.78
2018-02-19T18:39:11.658Z,16.81
2018-02-19T18:41:37.609Z,16.76
2018-02-19T18:44:04.604Z,16.85
2018-02-19T18:46:33.974Z,16.78
2018-02-19T18:48:59.802Z,16.82
2018-02-19T18:51:27.892Z,16.87
2018-02-19T18:53:53.774Z,16.76
2018-02-19T18:56:19.622Z,16.73
2018-02-19T18:58:45.509Z,16.66
2018-02-19T19:01:11.545Z,16.62
2018-02-19T19:03:38.416Z,16.62
2018-02-19T19:06:06.390Z,16.74
2018-02-19T19:08:39.285Z,16.73
2018-02-19T19:11:05.897Z,16.70
2018-02-19T19:13:32.004Z,16.61
2018-02-19T19:15:57.976Z,16.55
2018-02-19T19:18:23.870Z,16.55
2018-02-19T19:20:49.746Z,16.54
2018-02-19T19:23:15.638Z,16.56
2018-02-19T19:25:41.535Z,16.64
2018-02-19T19:28:07.423Z,16.64
2018-02-19T19:30:33.460Z,16.61
2018-02-19T19:32:59.432Z,16.50
2018-02-19T19:35:25.325Z,16.56
2018-02-19T19:37:51.218Z,16.59
2018-02-19T19:40:18.094Z,16.64
2018-02-19T19:42:46.250Z,16.67
2018-02-19T19:45:12.221Z,16.64
2018-02-19T19:47:38.159Z,16.65
2018-02-19T19:50:04.109Z,16.63
2018-02-19T19:52:29.994Z,16.62
2018-02-19T19:54:57.277Z,16.53
2018-02-19T19:57:23.162Z,16.57
2018-02-19T19:59:49.055Z,16.70
2018-02-19T20:02:14.994Z,16.60
2018-02-19T20:04:40.977Z,16.38
2018-02-19T20:07:06.954Z,16.46
2018-02-19T20:09:32.845Z,16.46
2018-02-19T20:11:58.766Z,16.46
2018-02-19T20:14:25.586Z,16.56
2018-02-19T20:16:51.534Z,16.61
2018-02-19T20:19:17.536Z,16.60
2018-02-19T20:21:43.423Z,16.53
2018-02-19T20:24:09.317Z,16.58
2018-02-19T20:26:35.219Z,16.53
2018-02-19T20:29:01.107Z,16.57
2018-02-19T20:31:27.019Z,16.45
2018-02-19T20:33:52.923Z,16.57
2018-02-19T20:36:18.904Z,16.54
2018-02-19T20:38:44.808Z,16.46
2018-02-19T20:41:10.790Z,16.38
2018-02-19T20:43:36.682Z,16.55
2018-02-19T20:46:02.607Z,16.43
2018-02-19T20:48:28.547Z,16.38
2018-02-19T20:50:54.479Z,16.46
2018-02-19T20:53:20.457Z,16.44
2018-02-19T20:55:46.399Z,16.49
2018-02-19T20:58:12.289Z,16.50
2018-02-19T21:00:38.268Z,16.42
2018-02-19T21:03:04.161Z,16.43
2018-02-19T21:05:30.137Z,16.29
2018-02-19T21:07:56.040Z,16.36
2018-02-19T21:10:22.009Z,16.31
2018-02-19T21:12:47.899Z,16.46
2018-02-19T21:15:13.877Z,16.39
2018-02-19T21:17:39.769Z,16.50
2018-02-19T21:20:05.748Z,16.48
2018-02-19T21:22:31.669Z,16.47
2018-02-19T21:24:57.561Z,16.49
2018-02-19T21:27:25.243Z,16.39
2018-02-19T21:29:53.268Z,16.34
2018-02-19T21:32:19.192Z,16.31
2018-02-19T21:34:45.143Z,16.37
2018-02-19T21:37:11.064Z,16.38
2018-02-19T21:39:39.113Z,16.43
2018-02-19T21:42:05.003Z,16.41
2018-02-19T21:44:30.946Z,16.34
2018-02-19T21:46:56.858Z,16.35
2018-02-19T21:49:22.766Z,16.22
2018-02-19T21:51:48.704Z,16.24
2018-02-19T21:54:14.606Z,16.39
2018-02-19T21:56:40.602Z,16.37
2018-02-19T21:59:06.502Z,16.25
2018-02-19T22:01:32.448Z,16.34
2018-02-19T22:03:58.336Z,16.34
2018-02-19T22:06:24.224Z,16.41
2018-02-19T22:08:50.082Z,16.55
2018-02-19T22:11:15.979Z,16.50
2018-02-19T22:13:42.093Z,16.39
2018-02-19T22:16:07.891Z,16.42
2018-02-19T22:18:33.683Z,16.40
2018-02-19T22:20:59.482Z,16.27
2018-02-19T22:23:25.280Z,16.28
2018-02-19T22:25:51.072Z,16.36
2018-02-19T22:28:16.926Z,16.32
2018-02-19T22:30:42.727Z,16.34
2018-02-19T22:33:08.576Z,16.34
2018-02-19T22:35:34.366Z,16.26
2018-02-19T22:38:00.174Z,16.31
2018-02-19T22:40:26.007Z,16.28
2018-02-19T22:42:51.799Z,16.22
2018-02-19T22:45:17.631Z,16.17
2018-02-19T22:47:43.429Z,16.22
2018-02-19T22:50:09.263Z,16.27
2018-02-19T22:52:35.107Z,16.18
2018-02-19T22:55:00.891Z,16.24
2018-02-19T22:57:26.740Z,16.16
2018-02-19T22:59:52.569Z,16.16
2018-02-19T23:02:18.366Z,16.23
2018-02-19T23:04:44.168Z,16.21
2018-02-19T23:07:09.959Z,16.26
2018-02-19T23:09:35.746Z,16.29
2018-02-19T23:12:01.569Z,16.30
2018-02-19T23:14:27.389Z,16.27
2018-02-19T23:16:53.234Z,16.33
2018-02-19T23:19:19.416Z,16.23
2018-02-19T23:21:45.705Z,16.29
2018-02-19T23:24:11.647Z,16.25
2018-02-19T23:26:37.480Z,16.34
2018-02-19T23:29:03.302Z,16.34
2018-02-19T23:31:29.097Z,16.25
2018-02-19T23:33:54.926Z,16.15
2018-02-19T23:36:21.125Z,16.07
2018-02-19T23:38:47.019Z,16.36
2018-02-19T23:41:12.814Z,16.29
2018-02-19T23:43:38.635Z,16.30
2018-02-19T23:46:04.457Z,16.35
2018-02-19T23:48:30.259Z,16.26
2018-02-19T23:50:56.102Z,16.25
2018-02-19T23:53:21.946Z,16.24
2018-02-19T23:55:47.734Z,16.12
2018-02-19T23:58:13.535Z,16.21
